Moffett Federal Airfield
KNUQ : now visible

Airfield :











YOU CAN JOIN US ON...

 
LOGIN :

Register | Disclaimer

   EN    FR    IT 

 









Legend :    VFR   Marginal VFR   IFR   Intensive IFR   Very Intensive IFR
Visi :
Ceiling :
>= 8 km
>= 3000ft
5 to 8 km
1000 to 3000 ft
1500m to 5 km
500 to 1000 ft
800 to 1500m
200 to 500 ft
< 800m
< 200 ft
Symbols :   Thunderstorms  Fog  Heavy snow  Heavy precipitations  Wind > 20 kt






- Airport Elevation : 32 ft


KNUQ - Moffett Federal

CURRENT METAR :
  • 301035Z AUTO 03013G20KT 10SM CLR 06/M07 A3000 RMK AO2

EXPIRED METARs :
  • 301010Z AUTO 03009KT 10SM CLR 06/M06 A3000 RMK AO2
  • 300955Z AUTO 01007KT 10SM CLR 06/M06 A2999 RMK AO2
  • 300930Z AUTO 03008KT 10SM CLR 06/M05 A2998 RMK AO2
  • 300915Z AUTO 02010KT 10SM CLR 06/M05 A2998 RMK AO2
  • 300855Z AUTO 03011KT 10SM CLR 07/M05 A2998 RMK AO2

Expired Forecast.
KZOA FIR / North America



MET'MAP, your aeronautical weather chart ! - Copyright ORBIFLY December 2007 - Disclaimer

ORBIFLY MET'MAP TEAM :

Programming & Development : Alexandra Zaïnal
Original concept : Baudouin d'Aumeries
Technical & hardware support : Manuel Goepfert
Assistance : Marc-Olivier Méhu




SOURCES & CREDITS :

   NOAA       Earth
Advisory